createdAt,value
2022-10-06T00:01:50.867Z,101179.72
2022-10-06T00:04:39.698Z,101181.97
2022-10-06T00:07:27.262Z,101191.31
2022-10-06T00:10:14.596Z,101188.75
2022-10-06T00:13:02.309Z,101192.41
2022-10-06T00:15:49.971Z,101195.75
2022-10-06T00:18:37.812Z,101194.63
2022-10-06T00:21:26.993Z,101192.56
2022-10-06T00:24:14.407Z,101208.59
2022-10-06T00:27:02.178Z,101207.84
2022-10-06T00:29:49.381Z,101208.16
2022-10-06T00:32:37.596Z,101211.75
2022-10-06T00:35:25.858Z,101212.56
2022-10-06T00:38:17.669Z,101234.16
2022-10-06T00:41:07.188Z,101238.91
2022-10-06T00:43:56.897Z,101238.53
2022-10-06T00:46:47.230Z,101236.00
2022-10-06T00:49:39.860Z,101247.34
2022-10-06T00:52:32.160Z,101245.91
2022-10-06T00:55:22.511Z,101250.66
2022-10-06T00:58:11.487Z,101257.63
2022-10-06T01:01:00.532Z,101251.78
2022-10-06T01:03:52.077Z,101260.13
2022-10-06T01:06:45.907Z,101262.34
2022-10-06T01:09:33.633Z,101264.09
2022-10-06T01:12:23.575Z,101266.59
2022-10-06T01:15:11.645Z,101275.75
2022-10-06T01:18:05.061Z,101274.97
2022-10-06T01:20:58.856Z,101281.78
2022-10-06T01:23:47.867Z,101285.66
2022-10-06T01:26:38.359Z,101292.00
2022-10-06T01:29:26.606Z,101301.00
2022-10-06T01:32:14.572Z,101301.91
2022-10-06T01:35:01.857Z,101296.75
2022-10-06T01:37:49.430Z,101299.31
2022-10-06T01:40:37.949Z,101309.22
2022-10-06T01:43:25.834Z,101318.50
2022-10-06T01:46:13.344Z,101323.75
2022-10-06T01:49:02.063Z,101315.81
2022-10-06T01:51:50.731Z,101319.47
2022-10-06T01:54:37.824Z,101326.56
2022-10-06T01:57:27.111Z,101328.84
2022-10-06T02:00:15.105Z,101336.47
2022-10-06T02:03:03.509Z,101344.31
2022-10-06T02:05:51.053Z,101340.28
2022-10-06T02:08:38.803Z,101351.47
2022-10-06T02:11:27.106Z,101351.09
2022-10-06T02:14:15.980Z,101363.25
2022-10-06T02:17:03.524Z,101364.94
2022-10-06T02:19:51.264Z,101370.28
2022-10-06T02:22:39.423Z,101369.72
2022-10-06T02:25:27.397Z,101383.13
2022-10-06T02:28:17.004Z,101387.69
2022-10-06T02:31:08.583Z,101381.75
2022-10-06T02:33:57.391Z,101389.75
2022-10-06T02:36:44.744Z,101396.66
2022-10-06T02:39:32.181Z,101400.25
2022-10-06T02:42:19.944Z,101394.38
2022-10-06T02:45:08.811Z,101420.28
2022-10-06T02:47:57.277Z,101418.59
2022-10-06T02:50:45.568Z,101422.94
2022-10-06T02:53:32.774Z,101425.59
2022-10-06T02:56:22.417Z,101426.78
2022-10-06T02:59:09.917Z,101433.09
2022-10-06T03:02:00.026Z,101443.72
2022-10-06T03:04:48.823Z,101435.84
2022-10-06T03:07:36.441Z,101438.56
2022-10-06T03:10:24.010Z,101452.97
2022-10-06T03:13:11.672Z,101463.19
2022-10-06T03:16:00.271Z,101458.53
2022-10-06T03:18:50.323Z,101462.34
2022-10-06T03:21:40.974Z,101469.22
2022-10-06T03:24:28.293Z,101467.78
2022-10-06T03:27:18.684Z,101484.88
2022-10-06T03:30:07.233Z,101491.38
2022-10-06T03:32:56.504Z,101484.03
2022-10-06T03:35:44.075Z,101495.16
2022-10-06T03:38:34.213Z,101497.72
2022-10-06T03:41:23.519Z,101510.75
2022-10-06T03:44:10.817Z,101512.84
2022-10-06T03:47:01.397Z,101512.94
2022-10-06T03:49:48.880Z,101516.59
2022-10-06T03:52:36.976Z,101528.59
2022-10-06T03:55:25.915Z,101528.88
2022-10-06T03:58:13.333Z,101531.53
2022-10-06T04:01:05.819Z,101538.81
2022-10-06T04:03:55.359Z,101539.91
2022-10-06T04:06:44.963Z,101550.50
2022-10-06T04:09:37.563Z,101557.78
2022-10-06T04:12:26.852Z,101544.66
2022-10-06T04:15:14.818Z,101561.06
2022-10-06T04:18:01.775Z,101562.88
2022-10-06T04:20:49.487Z,101563.13
2022-10-06T04:23:37.137Z,101561.59
2022-10-06T04:26:27.384Z,101577.72
2022-10-06T04:29:17.197Z,101573.28
2022-10-06T04:32:06.951Z,101583.06
2022-10-06T04:34:56.405Z,101596.97
2022-10-06T04:37:45.232Z,101595.78
2022-10-06T04:40:32.566Z,101591.25
2022-10-06T04:43:20.056Z,101614.56
2022-10-06T04:46:24.292Z,101611.88
2022-10-06T04:49:20.814Z,101625.97
2022-10-06T04:52:11.499Z,101618.47
2022-10-06T04:55:01.485Z,101627.50
2022-10-06T04:57:49.754Z,101636.94
2022-10-06T05:00:37.154Z,101639.53
2022-10-06T05:03:26.254Z,101639.75
2022-10-06T05:06:16.898Z,101659.25
2022-10-06T05:09:05.942Z,101659.78
2022-10-06T05:11:54.283Z,101670.69
2022-10-06T05:14:42.937Z,101680.81
2022-10-06T05:17:31.308Z,101696.53
2022-10-06T05:20:22.994Z,101698.22
2022-10-06T05:23:11.568Z,101697.91
2022-10-06T05:26:00.472Z,101703.72
2022-10-06T05:28:48.409Z,101716.00
2022-10-06T05:31:39.222Z,101702.69
2022-10-06T05:34:27.552Z,101709.53
2022-10-06T05:37:16.574Z,101713.97
2022-10-06T05:40:05.206Z,101722.84
2022-10-06T05:42:55.986Z,101725.25
2022-10-06T05:45:53.889Z,101725.78
2022-10-06T05:48:41.280Z,101740.63
2022-10-06T05:51:31.490Z,101746.09
2022-10-06T05:54:22.169Z,101752.22
2022-10-06T05:57:10.234Z,101754.63
2022-10-06T05:59:57.909Z,101765.38
2022-10-06T06:02:45.727Z,101765.41
2022-10-06T06:05:34.937Z,101769.50
2022-10-06T06:08:22.234Z,101778.56
2022-10-06T06:11:13.160Z,101782.28
2022-10-06T06:14:02.122Z,101793.56
2022-10-06T06:16:48.344Z,101790.31
2022-10-06T06:19:35.781Z,101794.44
2022-10-06T06:22:24.036Z,101798.34
2022-10-06T06:25:12.980Z,101806.16
2022-10-06T06:28:02.993Z,101796.41
2022-10-06T06:30:50.704Z,101811.59
2022-10-06T06:33:40.324Z,101809.00
2022-10-06T06:36:32.100Z,101816.81
2022-10-06T06:39:20.238Z,101820.22
2022-10-06T06:42:09.602Z,101821.91
2022-10-06T06:45:01.613Z,101827.97
2022-10-06T06:47:57.181Z,101833.41
2022-10-06T06:50:45.763Z,101838.78
2022-10-06T06:53:34.038Z,101839.44
2022-10-06T06:56:22.944Z,101847.91
2022-10-06T06:59:12.423Z,101849.84
2022-10-06T07:02:05.316Z,101856.53
2022-10-06T07:04:57.069Z,101862.91
2022-10-06T07:07:44.327Z,101868.22
2022-10-06T07:10:36.240Z,101871.81
2022-10-06T07:13:25.646Z,101877.63
2022-10-06T07:16:33.041Z,101883.06
2022-10-06T07:20:03.310Z,101889.09
2022-10-06T07:23:10.129Z,101902.53
2022-10-06T07:25:57.602Z,101905.66
2022-10-06T07:28:45.062Z,101908.63
2022-10-06T07:31:37.065Z,101913.81
2022-10-06T07:34:26.940Z,101917.03
2022-10-06T07:37:14.552Z,101925.06
2022-10-06T07:40:02.136Z,101928.34
2022-10-06T07:42:52.092Z,101929.53
2022-10-06T07:45:49.736Z,101930.19
2022-10-06T07:48:42.446Z,101947.00
2022-10-06T07:51:31.096Z,101947.38
2022-10-06T07:54:21.915Z,101948.16
2022-10-06T07:57:26.352Z,101952.78
2022-10-06T08:00:15.825Z,101960.16
2022-10-06T08:03:03.193Z,101955.63
2022-10-06T08:05:58.298Z,101960.94
2022-10-06T08:08:52.690Z,101969.09
2022-10-06T08:11:41.222Z,101977.31
2022-10-06T08:14:28.698Z,101974.13
2022-10-06T08:17:16.490Z,101974.47
2022-10-06T08:20:04.210Z,101980.50
2022-10-06T08:22:51.537Z,101981.19
2022-10-06T08:25:43.556Z,101986.56
2022-10-06T08:28:32.371Z,101987.25
2022-10-06T08:31:21.344Z,102010.28
2022-10-06T08:34:11.941Z,102014.22
2022-10-06T08:37:19.302Z,102006.28
2022-10-06T08:40:08.609Z,102009.69
2022-10-06T08:42:59.044Z,102014.72
2022-10-06T08:45:48.777Z,102020.53
2022-10-06T08:48:38.819Z,102015.06
2022-10-06T08:51:43.594Z,102022.13
2022-10-06T08:54:38.784Z,102018.75
2022-10-06T08:57:31.416Z,102024.88
2022-10-06T09:00:22.153Z,102029.09
2022-10-06T09:03:18.347Z,102038.72
2022-10-06T09:06:10.885Z,102030.31
2022-10-06T09:09:03.695Z,102037.72
2022-10-06T09:12:02.006Z,102046.13
2022-10-06T09:14:54.752Z,102043.28
2022-10-06T09:17:50.063Z,102049.41
2022-10-06T09:20:44.307Z,102042.00
2022-10-06T09:23:49.538Z,102041.81
2022-10-06T09:26:36.999Z,102040.00
2022-10-06T09:29:24.435Z,102046.69
2022-10-06T09:32:11.958Z,102051.53
2022-10-06T09:35:00.835Z,102059.41
2022-10-06T09:37:57.000Z,102065.81
2022-10-06T09:40:49.876Z,102074.81
2022-10-06T09:43:37.325Z,102071.16
2022-10-06T09:46:31.503Z,102068.78
2022-10-06T09:49:20.725Z,102082.16
2022-10-06T09:52:15.186Z,102079.59
2022-10-06T09:55:12.576Z,102077.19
2022-10-06T09:58:00.074Z,102079.28
2022-10-06T10:00:50.123Z,102078.72
2022-10-06T10:04:20.618Z,102083.59
2022-10-06T10:07:16.720Z,102088.16
2022-10-06T10:10:21.216Z,102086.69
2022-10-06T10:13:20.547Z,102088.16
2022-10-06T10:16:07.858Z,102094.31
2022-10-06T10:18:55.606Z,102095.19
2022-10-06T10:21:46.213Z,102086.56
2022-10-06T10:24:53.736Z,102092.94
2022-10-06T10:27:54.718Z,102086.75
2022-10-06T10:30:51.249Z,102083.00
2022-10-06T10:33:53.994Z,102080.28
2022-10-06T10:36:55.603Z,102092.31
2022-10-06T10:39:49.829Z,102092.69
2022-10-06T10:42:44.886Z,102090.84
2022-10-06T10:45:35.194Z,102094.63
2022-10-06T10:48:30.701Z,102100.00
2022-10-06T10:51:24.425Z,102096.69
2022-10-06T10:54:17.164Z,102102.50
2022-10-06T10:57:11.317Z,102099.84
2022-10-06T11:00:02.195Z,102104.97
2022-10-06T11:02:51.400Z,102106.69
2022-10-06T11:06:05.318Z,102103.84
2022-10-06T11:08:59.945Z,102110.25
2022-10-06T11:12:01.486Z,102112.25
2022-10-06T11:15:04.356Z,102109.09
2022-10-06T11:17:54.590Z,102103.78
2022-10-06T11:20:49.393Z,102109.34
2022-10-06T11:23:51.105Z,102115.13
2022-10-06T11:26:49.723Z,102118.97
2022-10-06T11:29:45.068Z,102112.28
2022-10-06T11:32:48.510Z,102115.38
2022-10-06T11:35:38.013Z,102126.84
2022-10-06T11:38:32.015Z,102123.16
2022-10-06T11:41:24.523Z,102117.25
2022-10-06T11:44:22.570Z,102112.59
2022-10-06T11:47:12.766Z,102110.44
2022-10-06T11:50:01.752Z,102112.59
2022-10-06T11:52:53.711Z,102105.69
2022-10-06T11:55:40.985Z,102105.03
2022-10-06T11:58:44.037Z,102111.34
2022-10-06T12:01:53.441Z,102109.25
2022-10-06T12:04:41.010Z,102107.50
2022-10-06T12:08:06.980Z,102106.38
2022-10-06T12:10:54.270Z,102112.13
2022-10-06T12:15:06.488Z,102110.25
2022-10-06T12:17:19.448Z,102108.84
2022-10-06T12:20:17.337Z,102106.22
2022-10-06T12:23:19.293Z,102097.97
2022-10-06T12:26:20.289Z,102104.09
2022-10-06T12:29:27.064Z,102097.06
2022-10-06T12:32:30.814Z,102102.97
2022-10-06T12:35:25.970Z,102096.53
2022-10-06T12:38:45.704Z,102096.00
2022-10-06T12:41:58.638Z,102097.19
2022-10-06T12:44:49.356Z,102092.78
2022-10-06T12:47:41.950Z,102099.75
2022-10-06T12:50:30.942Z,102100.19
2022-10-06T12:53:24.188Z,102094.28
2022-10-06T12:56:28.449Z,102085.22
2022-10-06T12:59:24.887Z,102096.66
2022-10-06T13:02:18.973Z,102082.88
2022-10-06T13:05:13.664Z,102085.47
2022-10-06T13:08:02.874Z,102087.38
2022-10-06T13:10:50.513Z,102087.31
2022-10-06T13:13:46.658Z,102083.59
2022-10-06T13:16:39.569Z,102076.28
2022-10-06T13:19:30.110Z,102074.59
2022-10-06T13:22:17.583Z,102083.06
2022-10-06T13:25:05.142Z,102073.94
2022-10-06T13:27:53.562Z,102087.09
2022-10-06T13:30:42.473Z,102079.84
2022-10-06T13:33:34.240Z,102077.34
2022-10-06T13:36:23.566Z,102084.56
2022-10-06T13:39:14.758Z,102072.25
2022-10-06T13:42:06.087Z,102092.19
2022-10-06T13:45:00.151Z,102087.75
2022-10-06T13:47:49.103Z,102088.84
2022-10-06T13:50:39.932Z,102082.75
2022-10-06T13:53:31.299Z,102091.66
2022-10-06T13:56:38.052Z,102087.22
2022-10-06T13:59:38.633Z,102097.84
2022-10-06T14:02:32.567Z,102082.38
2022-10-06T14:05:29.562Z,102086.16
2022-10-06T14:08:23.559Z,102085.31
2022-10-06T14:11:12.187Z,102092.31
2022-10-06T14:14:02.433Z,102093.72
2022-10-06T14:16:53.924Z,102100.09
2022-10-06T14:19:41.466Z,102094.19
2022-10-06T14:22:34.307Z,102095.25
2022-10-06T14:25:22.838Z,102088.53
2022-10-06T14:28:10.810Z,102089.00
2022-10-06T14:30:58.967Z,102099.53
2022-10-06T14:33:47.921Z,102098.25
2022-10-06T14:36:38.353Z,102095.88
2022-10-06T14:39:28.598Z,102100.72
2022-10-06T14:42:17.345Z,102096.28
2022-10-06T14:45:05.095Z,102089.25
2022-10-06T14:47:52.521Z,102096.84
2022-10-06T14:50:40.387Z,102088.34
2022-10-06T14:53:27.952Z,102095.72
2022-10-06T14:56:16.665Z,102087.47
2022-10-06T14:59:06.247Z,102079.84
2022-10-06T15:01:53.740Z,102089.56
2022-10-06T15:04:41.332Z,102087.47
2022-10-06T15:07:46.057Z,102078.94
2022-10-06T15:10:33.377Z,102088.00
2022-10-06T15:13:22.046Z,102093.50
2022-10-06T15:16:10.271Z,102086.53
2022-10-06T15:19:00.112Z,102088.06
2022-10-06T15:21:47.888Z,102089.50
2022-10-06T15:24:35.695Z,102085.25
2022-10-06T15:30:29.932Z,102092.97
2022-10-06T15:33:17.371Z,102088.16
2022-10-06T15:36:18.541Z,102081.81
2022-10-06T15:39:07.871Z,102080.22
2022-10-06T15:41:55.635Z,102085.03
2022-10-06T15:44:43.209Z,102095.97
2022-10-06T15:47:31.549Z,102093.97
2022-10-06T15:50:19.233Z,102094.16
2022-10-06T15:53:07.062Z,102096.56
2022-10-06T15:55:59.123Z,102094.19
2022-10-06T15:58:48.038Z,102092.22
2022-10-06T16:01:42.621Z,102091.84
2022-10-06T16:04:38.841Z,102092.44
2022-10-06T16:07:26.436Z,102097.88
2022-10-06T16:10:13.788Z,102099.19
2022-10-06T16:13:01.601Z,102099.41
2022-10-06T16:15:53.731Z,102097.22
2022-10-06T16:18:41.227Z,102099.41
2022-10-06T16:21:31.301Z,102095.03
2022-10-06T16:24:19.668Z,102094.06
2022-10-06T16:27:07.620Z,102095.66
2022-10-06T16:29:54.722Z,102094.50
2022-10-06T16:32:42.578Z,102093.84
2022-10-06T16:35:29.650Z,102090.44
2022-10-06T16:38:18.301Z,102098.75
2022-10-06T16:41:06.717Z,102090.94
2022-10-06T16:43:54.829Z,102089.13
2022-10-06T16:46:42.605Z,102091.25
2022-10-06T16:49:29.962Z,102093.50
2022-10-06T16:52:17.168Z,102095.97
2022-10-06T16:55:08.355Z,102103.38
2022-10-06T16:57:55.667Z,102102.91
2022-10-06T17:00:43.911Z,102114.28
2022-10-06T17:03:31.279Z,102116.56
2022-10-06T17:06:19.855Z,102115.75
2022-10-06T17:09:08.150Z,102116.81
2022-10-06T17:11:58.380Z,102105.41
2022-10-06T17:14:46.087Z,102115.34
2022-10-06T17:17:33.384Z,102124.47
2022-10-06T17:20:21.141Z,102130.50
2022-10-06T17:23:09.817Z,102125.56
2022-10-06T17:26:10.216Z,102122.00
2022-10-06T17:29:01.062Z,102131.25
2022-10-06T17:31:49.574Z,102132.13
2022-10-06T17:34:36.971Z,102137.94
2022-10-06T17:37:24.615Z,102138.47
2022-10-06T17:40:12.083Z,102137.59
2022-10-06T17:42:59.493Z,102143.41
2022-10-06T17:45:49.398Z,102139.09
2022-10-06T17:48:36.567Z,102147.13
2022-10-06T17:51:27.085Z,102141.41
2022-10-06T17:54:17.137Z,102135.25
2022-10-06T17:57:05.452Z,102149.75
2022-10-06T17:59:52.883Z,102139.28
2022-10-06T18:02:42.326Z,102142.09
2022-10-06T18:05:32.995Z,102150.56
2022-10-06T18:08:23.501Z,102145.22
2022-10-06T18:11:30.286Z,102146.16
2022-10-06T18:14:19.369Z,102148.97
2022-10-06T18:17:07.022Z,102156.22
2022-10-06T18:19:57.687Z,102148.28
2022-10-06T18:22:45.018Z,102141.75
2022-10-06T18:25:32.542Z,102143.13
2022-10-06T18:28:19.813Z,102146.47
2022-10-06T18:31:07.886Z,102145.13
2022-10-06T18:37:04.599Z,102149.50
2022-10-06T18:39:52.257Z,102139.09
2022-10-06T18:42:40.299Z,102141.81
2022-10-06T18:45:44.786Z,102138.91
2022-10-06T18:48:49.979Z,102139.69
2022-10-06T18:51:39.809Z,102140.66
2022-10-06T18:54:30.309Z,102153.22
2022-10-06T18:57:18.111Z,102152.44
2022-10-06T19:00:06.328Z,102147.34
2022-10-06T19:02:55.559Z,102152.94
2022-10-06T19:05:52.652Z,102152.03
2022-10-06T19:08:40.294Z,102153.44
2022-10-06T19:11:52.191Z,102160.53
2022-10-06T19:14:46.882Z,102164.56
2022-10-06T19:17:34.675Z,102164.22
2022-10-06T19:20:23.320Z,102163.97
2022-10-06T19:23:11.960Z,102174.44
2022-10-06T19:26:00.242Z,102173.53
2022-10-06T19:28:50.761Z,102162.81
2022-10-06T19:31:41.610Z,102161.41
2022-10-06T19:34:29.202Z,102172.63
2022-10-06T19:37:17.722Z,102176.94
2022-10-06T19:40:07.082Z,102171.09
2022-10-06T19:42:54.117Z,102169.97
2022-10-06T19:45:44.035Z,102174.00
2022-10-06T19:48:31.845Z,102171.84
2022-10-06T19:51:19.565Z,102166.41
2022-10-06T19:54:06.793Z,102167.25
2022-10-06T19:56:54.218Z,102165.13
2022-10-06T19:59:42.708Z,102171.28
2022-10-06T20:02:31.607Z,102162.84
2022-10-06T20:05:19.182Z,102168.56
2022-10-06T20:08:08.691Z,102173.47
2022-10-06T20:11:03.029Z,102165.16
2022-10-06T20:13:51.907Z,102160.00
2022-10-06T20:16:41.691Z,102165.44
2022-10-06T20:19:31.157Z,102171.06
2022-10-06T20:22:19.088Z,102173.66
2022-10-06T20:25:07.326Z,102175.38
2022-10-06T20:27:54.544Z,102168.63
2022-10-06T20:30:49.577Z,102177.66
2022-10-06T20:33:37.186Z,102172.59
2022-10-06T20:36:26.269Z,102180.75
2022-10-06T20:39:34.146Z,102179.00
2022-10-06T20:42:22.698Z,102173.47
2022-10-06T20:45:11.063Z,102178.31
2022-10-06T20:48:00.324Z,102178.78
2022-10-06T20:50:48.145Z,102174.50
2022-10-06T20:53:37.227Z,102171.06
2022-10-06T20:56:24.650Z,102170.50
2022-10-06T20:59:13.424Z,102178.09
2022-10-06T21:02:01.084Z,102178.97
2022-10-06T21:04:48.538Z,102171.66
2022-10-06T21:07:35.650Z,102167.63
2022-10-06T21:10:24.490Z,102163.47
2022-10-06T21:13:12.040Z,102161.06
2022-10-06T21:16:00.246Z,102171.66
2022-10-06T21:18:47.979Z,102171.09
2022-10-06T21:21:35.439Z,102174.84
2022-10-06T21:24:22.855Z,102161.34
2022-10-06T21:27:11.600Z,102162.38
2022-10-06T21:29:59.321Z,102157.50
2022-10-06T21:32:46.596Z,102150.63
2022-10-06T21:35:34.062Z,102155.34
2022-10-06T21:38:21.531Z,102152.34
2022-10-06T21:41:29.516Z,102144.34
2022-10-06T21:44:19.739Z,102146.75
2022-10-06T21:47:07.059Z,102152.16
2022-10-06T21:49:54.302Z,102154.47
2022-10-06T21:52:41.750Z,102145.03
2022-10-06T21:55:28.748Z,102147.63
2022-10-06T21:58:16.252Z,102137.88
2022-10-06T22:01:05.612Z,102143.72
2022-10-06T22:03:53.258Z,102145.25
2022-10-06T22:06:40.971Z,102135.19
2022-10-06T22:09:28.517Z,102134.22
2022-10-06T22:12:16.109Z,102132.22
2022-10-06T22:15:03.602Z,102134.69
2022-10-06T22:17:51.866Z,102130.41
2022-10-06T22:20:39.341Z,102137.31
2022-10-06T22:23:26.922Z,102132.56
2022-10-06T22:26:16.228Z,102118.84
2022-10-06T22:29:03.511Z,102119.81
2022-10-06T22:31:50.971Z,102127.28
2022-10-06T22:34:39.446Z,102128.38
2022-10-06T22:37:27.076Z,102122.66
2022-10-06T22:40:14.189Z,102118.06
2022-10-06T22:42:42.995Z,102113.53
2022-10-06T22:45:12.594Z,102113.69
2022-10-06T22:47:41.833Z,102116.69
2022-10-06T22:50:12.732Z,102110.66
2022-10-06T22:52:41.560Z,102104.47
2022-10-06T22:55:10.850Z,102100.31
2022-10-06T22:57:39.698Z,102099.00
2022-10-06T23:00:10.240Z,102095.16
2022-10-06T23:02:39.217Z,102093.44
2022-10-06T23:05:08.617Z,102099.19
2022-10-06T23:07:38.912Z,102085.59
2022-10-06T23:10:08.659Z,102093.47
2022-10-06T23:12:37.612Z,102089.78
2022-10-06T23:15:11.390Z,102084.88
2022-10-06T23:17:40.269Z,102079.59
2022-10-06T23:20:10.201Z,102082.56
2022-10-06T23:22:40.569Z,102070.81
2022-10-06T23:25:10.498Z,102063.69
2022-10-06T23:27:39.430Z,102064.84
2022-10-06T23:30:09.590Z,102072.88
2022-10-06T23:32:40.731Z,102067.41
2022-10-06T23:35:10.233Z,102061.38
2022-10-06T23:37:40.693Z,102074.00
2022-10-06T23:40:10.388Z,102063.97
2022-10-06T23:42:39.425Z,102061.41
2022-10-06T23:45:09.258Z,102065.81
2022-10-06T23:47:38.157Z,102062.22
2022-10-06T23:50:07.904Z,102065.50
2022-10-06T23:52:37.354Z,102062.84
2022-10-06T23:55:08.711Z,102063.13
2022-10-06T23:57:37.571Z,102058.53
